Main page
METAR-TAF:

METAR-TAF

Airports :

Vardø Airport. Svartnes

Vardø, Norway

latitude: 70-21N, longitude: 031-03E, elevation: 12 m

Current weather observation

The report was made 5 hours and 34 minutes ago, at 21:50 UTC
Wind 10 kt from the North
Temperature -1°C
Humidity 80%
Pressure 986 hPa
Visibility 10 km or more
Scattered clouds at a height of 2500 ft
showers in vicinity

METAR: ENSS 242150Z 35010KT 9999 VCSH SCT025 M01/M04 Q0986 RMK WIND 500FT VRB04G14KT

Time: 04:24 (03:24 UTC)


TAF: missing

Weather observations and forecasts of more than 4000 airports (METAR and TAF reports).

The available stations are represented by yellow and red dots on the map.

Hover mouse over dot to see the name of the station.

Then click to see weather observations and forecasts.

To change the map : click on the green buttons with a black cross to zoom in, on the green button with a dash to zoom out, or on the green arrows for adjacent maps.


METAR-TAF: